Time;durP1;ratioP1;P1;durP2;ratioP2;P2;SDS_P1;SDS_P2;PMS_P1;PMS_P2;Temp;Humidity;BMP_temperature;BMP_pressure;BME280_temperature;BME280_humidity;BME280_pressure;Samples;Min_cycle;Max_cycle;Signal;HPM_P1;HPM_P2
2024/03/24 00:01:57;;;;;;;2.08;1.98;;;6.60;99.90;;;;;;5081770;28;20901;-74
2024/03/24 00:04:24;;;;;;;1.77;1.70;;;6.60;99.90;;;;;;5082346;28;20241;-76
2024/03/24 00:06:49;;;;;;;2.17;2.08;;;6.60;99.90;;;;;;5082713;28;20680;-74
2024/03/24 00:09:16;;;;;;;2.10;2.00;;;6.60;99.90;;;;;;5082676;28;20301;-75
2024/03/24 00:11:42;;;;;;;2.00;1.90;;;6.60;99.90;;;;;;5080471;28;22145;-73
2024/03/24 00:14:09;;;;;;;1.90;1.80;;;6.50;99.90;;;;;;5079685;28;20290;-76
2024/03/24 00:16:37;;;;;;;1.83;1.73;;;6.50;99.90;;;;;;5076525;28;20236;-75
2024/03/24 00:19:04;;;;;;;2.10;2.00;;;6.50;99.90;;;;;;5085068;28;20213;-74
2024/03/24 00:21:31;;;;;;;2.10;2.00;;;6.40;99.90;;;;;;5091270;28;20526;-75
2024/03/24 00:23:58;;;;;;;1.90;1.85;;;6.30;99.90;;;;;;5087471;28;20265;-75
2024/03/24 00:26:24;;;;;;;2.03;1.98;;;6.20;99.90;;;;;;5089419;28;20240;-73
2024/03/24 00:28:51;;;;;;;2.00;1.90;;;6.20;99.90;;;;;;5088378;28;20222;-74
2024/03/24 00:31:17;;;;;;;2.15;2.05;;;6.20;99.90;;;;;;5086023;28;20306;-74
2024/03/24 00:33:45;;;;;;;1.88;1.77;;;6.20;99.90;;;;;;5086593;28;20234;-73
2024/03/24 00:36:12;;;;;;;2.30;2.20;;;6.10;99.90;;;;;;5088432;28;20295;-75
2024/03/24 00:38:39;;;;;;;2.00;1.90;;;6.10;99.90;;;;;;5084195;28;21048;-74
2024/03/24 00:41:06;;;;;;;2.30;2.20;;;6.10;99.90;;;;;;5081732;28;20255;-73
2024/03/24 00:43:35;;;;;;;2.20;2.10;;;6.10;99.90;;;;;;5081292;28;20216;-74
2024/03/24 00:46:01;;;;;;;2.30;2.20;;;6.10;99.90;;;;;;5080792;28;20220;-75
2024/03/24 00:48:28;;;;;;;2.10;2.00;;;6.20;99.90;;;;;;5088146;28;20216;-75
2024/03/24 00:50:55;;;;;;;1.92;1.90;;;6.10;99.90;;;;;;5081670;28;20253;-75
2024/03/24 00:53:22;;;;;;;1.70;1.70;;;6.20;99.90;;;;;;5082627;28;20239;-75
2024/03/24 00:55:48;;;;;;;2.13;2.03;;;6.10;99.90;;;;;;5084136;28;20248;-74
2024/03/24 00:58:16;;;;;;;2.10;2.00;;;6.10;99.90;;;;;;5081868;28;20224;-74
2024/03/24 01:00:46;;;;;;;2.33;2.10;;;6.00;99.90;;;;;;5085276;28;20228;-73
2024/03/24 01:03:13;;;;;;;2.05;1.95;;;5.90;99.90;;;;;;5077058;28;20300;-74
2024/03/24 01:05:38;;;;;;;2.00;1.90;;;5.90;99.90;;;;;;5084793;28;21651;-74
2024/03/24 01:08:08;;;;;;;2.10;2.00;;;5.90;99.90;;;;;;5082358;28;20726;-74
2024/03/24 01:10:36;;;;;;;2.17;2.08;;;5.90;99.90;;;;;;5081113;28;20229;-73
2024/03/24 01:13:04;;;;;;;2.05;1.95;;;5.90;99.90;;;;;;5086083;28;20229;-74
2024/03/24 01:15:31;;;;;;;2.28;2.10;;;5.80;99.90;;;;;;5081871;28;20245;-73
2024/03/24 01:17:58;;;;;;;2.40;2.30;;;5.80;99.90;;;;;;5081382;28;20754;-74
2024/03/24 01:20:24;;;;;;;2.33;2.20;;;5.80;99.90;;;;;;5074854;28;20703;-74
2024/03/24 01:22:51;;;;;;;3.45;3.15;;;5.70;99.90;;;;;;5081127;28;20228;-75
2024/03/24 01:25:18;;;;;;;2.30;2.20;;;5.70;99.90;;;;;;5081663;28;20648;-74
2024/03/24 01:27:45;;;;;;;2.10;2.00;;;5.60;99.90;;;;;;5082568;28;20270;-74
2024/03/24 01:30:12;;;;;;;2.42;2.33;;;5.60;99.90;;;;;;5082483;28;20310;-74
2024/03/24 01:32:39;;;;;;;2.47;2.38;;;5.50;99.90;;;;;;5081764;28;20237;-74
2024/03/24 01:35:05;;;;;;;2.50;2.40;;;5.50;99.90;;;;;;5075684;28;20257;-74
2024/03/24 01:37:32;;;;;;;2.22;2.00;;;5.50;99.90;;;;;;5080172;28;20762;-75
2024/03/24 01:39:58;;;;;;;2.33;2.22;;;5.50;99.90;;;;;;5084491;28;20256;-75
2024/03/24 01:42:27;;;;;;;2.47;2.38;;;5.50;99.90;;;;;;5078227;28;20441;-74
2024/03/24 01:44:53;;;;;;;2.80;2.60;;;5.50;99.90;;;;;;5075216;28;20253;-75
2024/03/24 01:47:20;;;;;;;2.30;2.20;;;5.50;99.90;;;;;;5081131;28;20291;-74
2024/03/24 01:49:46;;;;;;;2.42;2.33;;;5.50;99.90;;;;;;5077820;28;20376;-75
2024/03/24 01:52:14;;;;;;;2.58;2.45;;;5.50;99.90;;;;;;5077623;28;20703;-76
2024/03/24 01:54:40;;;;;;;2.30;2.20;;;5.50;99.90;;;;;;5076990;28;20257;-74
2024/03/24 01:57:07;;;;;;;2.50;2.30;;;5.50;99.90;;;;;;5075122;28;20711;-74
2024/03/24 01:59:35;;;;;;;2.40;2.30;;;5.50;99.90;;;;;;5077888;28;20317;-72
2024/03/24 02:02:03;;;;;;;2.42;2.33;;;5.50;99.90;;;;;;5079778;28;20288;-73
2024/03/24 02:04:29;;;;;;;2.72;2.63;;;5.50;99.90;;;;;;5074886;28;20260;-75
2024/03/24 02:06:56;;;;;;;2.55;2.45;;;5.40;99.90;;;;;;5079726;28;20237;-74
2024/03/24 02:09:22;;;;;;;2.60;2.50;;;5.40;99.90;;;;;;5076975;28;21283;-75
2024/03/24 02:11:48;;;;;;;2.42;2.33;;;5.40;99.90;;;;;;5076957;28;20238;-75
2024/03/24 02:14:14;;;;;;;2.30;2.20;;;5.30;99.90;;;;;;5080598;28;20727;-74
2024/03/24 02:16:43;;;;;;;2.60;2.50;;;5.30;99.90;;;;;;5078163;28;20221;-75
2024/03/24 02:19:08;;;;;;;2.50;2.40;;;5.40;99.90;;;;;;5078638;28;20256;-74
2024/03/24 02:21:35;;;;;;;2.47;2.38;;;5.40;99.90;;;;;;5085153;28;20282;-74
2024/03/24 02:24:03;;;;;;;2.47;2.38;;;5.40;99.90;;;;;;5084714;28;20225;-74
2024/03/24 02:26:30;;;;;;;2.30;2.20;;;5.30;99.90;;;;;;5080800;28;20738;-74
2024/03/24 02:28:56;;;;;;;2.35;2.20;;;5.30;99.90;;;;;;5082399;28;20218;-73
2024/03/24 02:31:23;;;;;;;2.35;2.25;;;5.20;99.90;;;;;;5085942;28;20290;-74
2024/03/24 02:33:50;;;;;;;2.40;2.30;;;5.20;99.90;;;;;;5080219;28;20233;-75
2024/03/24 02:36:17;;;;;;;2.25;2.15;;;5.20;99.90;;;;;;5082079;28;20249;-76
2024/03/24 02:38:43;;;;;;;2.55;2.45;;;5.20;99.90;;;;;;5079196;28;20308;-74
2024/03/24 02:41:11;;;;;;;2.60;2.40;;;5.20;99.90;;;;;;5080947;28;20206;-73
2024/03/24 02:43:38;;;;;;;2.20;2.10;;;5.10;99.90;;;;;;5076285;28;20229;-75
2024/03/24 02:46:05;;;;;;;3.05;2.22;;;5.10;99.90;;;;;;5078290;28;20212;-73
2024/03/24 02:48:31;;;;;;;2.30;2.20;;;5.20;99.90;;;;;;5081387;28;20245;-74
2024/03/24 02:50:59;;;;;;;2.47;2.38;;;5.20;99.90;;;;;;5084817;28;20281;-74
2024/03/24 02:53:24;;;;;;;2.50;2.40;;;5.20;99.90;;;;;;5086563;28;20218;-75
2024/03/24 02:55:51;;;;;;;2.10;2.00;;;5.20;99.90;;;;;;5082603;28;20217;-74
2024/03/24 02:58:19;;;;;;;2.60;2.50;;;5.20;99.90;;;;;;5082855;28;20253;-74
2024/03/24 03:00:46;;;;;;;2.92;2.65;;;5.20;99.90;;;;;;5081701;28;21101;-75
2024/03/24 03:03:12;;;;;;;2.80;2.60;;;5.20;99.90;;;;;;5082977;28;20220;-75
2024/03/24 03:05:40;;;;;;;2.60;2.50;;;5.00;99.90;;;;;;5077155;28;20217;-73
2024/03/24 03:08:06;;;;;;;2.47;2.28;;;4.90;99.90;;;;;;5081754;28;20333;-75
2024/03/24 03:10:33;;;;;;;2.47;2.38;;;4.90;99.90;;;;;;5080761;28;20274;-74
2024/03/24 03:12:59;;;;;;;3.00;2.80;;;4.90;99.90;;;;;;5084339;28;20603;-75
2024/03/24 03:15:28;;;;;;;2.50;2.40;;;4.80;99.90;;;;;;5080757;28;20217;-76
2024/03/24 03:17:54;;;;;;;2.60;2.50;;;4.70;99.90;;;;;;5084686;28;20263;-74
2024/03/24 03:20:21;;;;;;;2.50;2.40;;;4.70;99.90;;;;;;5081532;28;20739;-74
2024/03/24 03:22:47;;;;;;;2.72;2.60;;;4.70;99.90;;;;;;5080013;28;20290;-73
2024/03/24 03:25:14;;;;;;;2.08;1.98;;;4.70;99.90;;;;;;5078393;28;20228;-75
2024/03/24 03:27:41;;;;;;;2.67;2.47;;;4.70;99.90;;;;;;5082826;28;20221;-76
2024/03/24 03:30:08;;;;;;;2.60;2.50;;;4.70;99.90;;;;;;5076311;28;20308;-73
2024/03/24 03:32:36;;;;;;;1.90;1.80;;;4.80;99.90;;;;;;5082875;28;20304;-76
2024/03/24 03:35:03;;;;;;;2.42;2.33;;;4.70;99.90;;;;;;5078657;28;20225;-73
2024/03/24 03:37:29;;;;;;;2.63;2.53;;;4.70;99.90;;;;;;5081576;28;20286;-74
2024/03/24 03:39:56;;;;;;;2.20;2.10;;;4.70;99.90;;;;;;5080611;28;20707;-74
2024/03/24 03:42:23;;;;;;;2.30;2.20;;;4.70;99.90;;;;;;5078835;28;20939;-75
2024/03/24 03:44:50;;;;;;;2.47;2.35;;;4.80;99.90;;;;;;5078135;27;20254;-75
2024/03/24 03:47:17;;;;;;;2.50;2.40;;;4.80;99.90;;;;;;5077788;28;20708;-75
2024/03/24 03:49:50;;;;;;;2.67;2.58;;;4.80;99.90;;;;;;5077918;28;20222;-74
2024/03/24 03:52:17;;;;;;;2.33;2.22;;;4.80;99.90;;;;;;5081630;28;20220;-74
2024/03/24 03:54:44;;;;;;;2.38;2.28;;;4.90;99.90;;;;;;5079262;28;20944;-73
2024/03/24 03:57:10;;;;;;;2.47;2.38;;;4.90;99.90;;;;;;5080318;28;20245;-73
2024/03/24 03:59:37;;;;;;;2.50;2.40;;;4.90;99.90;;;;;;5076732;28;20308;-75
2024/03/24 04:02:03;;;;;;;2.55;2.45;;;4.90;99.90;;;;;;5081846;28;20241;-74
2024/03/24 04:04:30;;;;;;;2.30;2.20;;;4.80;99.90;;;;;;5081842;28;20225;-74
2024/03/24 04:06:58;;;;;;;2.30;2.20;;;4.80;99.90;;;;;;5078638;28;20237;-74
2024/03/24 04:09:25;;;;;;;2.33;2.22;;;4.80;99.90;;;;;;5079519;28;20799;-76
2024/03/24 04:11:50;;;;;;;2.30;2.20;;;4.80;99.90;;;;;;5078103;28;20782;-74
2024/03/24 04:14:17;;;;;;;2.70;2.50;;;4.80;99.90;;;;;;5081891;28;20237;-73
2024/03/24 04:16:43;;;;;;;2.60;2.50;;;4.80;99.90;;;;;;5082828;28;20988;-73
2024/03/24 04:19:10;;;;;;;2.47;2.38;;;4.80;99.90;;;;;;5079600;28;20295;-74
2024/03/24 04:21:36;;;;;;;2.78;2.58;;;4.70;99.90;;;;;;5078454;28;20222;-75
2024/03/24 04:24:05;;;;;;;2.30;2.20;;;4.70;99.90;;;;;;5079300;28;20217;-75
2024/03/24 04:26:31;;;;;;;2.35;2.25;;;4.70;99.90;;;;;;5080133;28;20304;-73
2024/03/24 04:28:58;;;;;;;2.13;2.03;;;4.60;99.90;;;;;;5076873;28;20379;-74
2024/03/24 04:31:24;;;;;;;2.55;2.40;;;4.70;99.90;;;;;;5080574;28;20644;-74
2024/03/24 04:33:51;;;;;;;2.30;2.20;;;4.70;99.90;;;;;;5081865;28;20246;-74
2024/03/24 04:36:18;;;;;;;2.40;2.30;;;4.70;99.90;;;;;;5079349;28;20890;-74
2024/03/24 04:38:45;;;;;;;2.50;2.40;;;4.70;99.90;;;;;;5078407;28;20316;-74
2024/03/24 04:41:13;;;;;;;2.60;2.50;;;4.70;99.90;;;;;;5078686;28;21242;-74
2024/03/24 04:43:40;;;;;;;2.45;2.35;;;4.70;99.90;;;;;;5080548;28;20262;-75
2024/03/24 04:46:07;;;;;;;2.38;2.28;;;4.70;99.90;;;;;;5077632;28;20221;-74
2024/03/24 04:48:33;;;;;;;2.53;2.42;;;4.70;99.90;;;;;;5080488;28;20217;-76
2024/03/24 04:51:00;;;;;;;2.17;2.08;;;4.70;99.90;;;;;;5074820;28;20248;-74
2024/03/24 04:53:26;;;;;;;2.38;2.28;;;4.70;99.90;;;;;;5083789;28;20664;-74
2024/03/24 04:55:54;;;;;;;2.45;2.25;;;4.60;99.90;;;;;;5078217;28;20205;-74
2024/03/24 04:58:21;;;;;;;2.60;2.50;;;4.60;99.90;;;;;;5079520;28;20840;-73
2024/03/24 05:00:48;;;;;;;2.72;2.63;;;4.50;99.90;;;;;;5078742;28;20316;-75
2024/03/24 05:03:14;;;;;;;2.50;2.40;;;4.40;99.90;;;;;;5082711;28;20298;-74
2024/03/24 05:05:45;;;;;;;2.42;2.33;;;4.40;99.90;;;;;;5076743;28;20210;-75
2024/03/24 05:08:14;;;;;;;2.30;2.20;;;4.40;99.90;;;;;;5083143;28;20703;-74
2024/03/24 05:10:42;;;;;;;2.70;2.60;;;4.40;99.90;;;;;;5081025;28;20217;-75
2024/03/24 05:13:08;;;;;;;2.58;2.47;;;4.30;99.90;;;;;;5077270;28;20667;-74
2024/03/24 05:15:37;;;;;;;2.40;2.30;;;4.30;99.90;;;;;;5076555;28;20304;-75
2024/03/24 05:18:05;;;;;;;2.42;2.33;;;4.30;99.90;;;;;;5081720;28;20224;-75
2024/03/24 05:20:35;;;;;;;2.40;2.30;;;4.30;99.90;;;;;;5078420;27;20214;-75
2024/03/24 05:23:01;;;;;;;2.28;2.17;;;4.30;99.90;;;;;;5089830;28;20253;-76
2024/03/24 05:25:28;;;;;;;2.97;2.78;;;4.20;99.90;;;;;;5074250;28;20210;-75
2024/03/24 05:27:54;;;;;;;2.50;2.40;;;4.30;99.90;;;;;;5079799;28;20768;-75
2024/03/24 05:30:21;;;;;;;2.60;2.50;;;4.30;99.90;;;;;;5076054;28;20237;-76
2024/03/24 05:32:48;;;;;;;2.35;2.25;;;4.20;99.90;;;;;;5083399;28;20249;-74
2024/03/24 05:35:16;;;;;;;2.55;2.45;;;4.30;99.90;;;;;;5081924;28;20217;-75
2024/03/24 05:37:43;;;;;;;2.50;2.40;;;4.30;99.90;;;;;;5078086;28;20222;-74
2024/03/24 05:40:13;;;;;;;2.58;2.40;;;4.30;99.90;;;;;;5077866;28;20706;-74
2024/03/24 05:42:39;;;;;;;2.70;2.60;;;4.30;99.90;;;;;;5081621;28;20639;-74
2024/03/24 05:45:07;;;;;;;2.35;2.25;;;4.30;99.90;;;;;;5077294;28;21544;-74
2024/03/24 05:47:33;;;;;;;2.65;2.55;;;4.30;99.90;;;;;;5076984;28;20267;-74
2024/03/24 05:50:02;;;;;;;2.70;2.60;;;4.30;99.90;;;;;;5084958;28;20280;-72
2024/03/24 05:52:28;;;;;;;2.70;2.60;;;4.40;99.90;;;;;;5080303;28;20263;-75
2024/03/24 05:54:55;;;;;;;2.88;2.70;;;4.50;99.90;;;;;;5076679;28;20221;-76
2024/03/24 05:57:21;;;;;;;2.70;2.60;;;4.90;99.90;;;;;;5076901;28;20236;-74
2024/03/24 05:59:48;;;;;;;2.70;2.60;;;5.50;99.90;;;;;;5079086;28;20744;-74
2024/03/24 06:02:15;;;;;;;2.95;2.83;;;6.00;99.90;;;;;;5080236;28;20270;-74
2024/03/24 06:04:42;;;;;;;2.83;2.72;;;6.40;99.90;;;;;;5084019;28;20241;-76
2024/03/24 06:07:10;;;;;;;2.63;2.53;;;6.30;99.90;;;;;;5080061;28;20605;-75
2024/03/24 06:09:38;;;;;;;2.10;2.00;;;6.20;99.90;;;;;;5079806;28;20909;-74
2024/03/24 06:12:05;;;;;;;2.35;2.25;;;6.10;99.90;;;;;;5079510;28;20256;-75
2024/03/24 06:14:31;;;;;;;2.35;2.25;;;6.00;99.90;;;;;;5075043;28;20310;-77
2024/03/24 06:16:58;;;;;;;2.50;2.40;;;6.00;99.90;;;;;;5080561;28;20315;-74
2024/03/24 06:19:24;;;;;;;2.50;2.40;;;6.00;99.90;;;;;;5083589;28;20217;-78
2024/03/24 06:21:50;;;;;;;2.25;2.10;;;6.00;99.90;;;;;;5080278;28;20253;-76
2024/03/24 06:24:19;;;;;;;3.00;2.80;;;6.00;99.90;;;;;;5082745;28;20209;-74
2024/03/24 06:26:45;;;;;;;2.53;2.33;;;6.10;99.90;;;;;;5082716;28;20337;-74
2024/03/24 06:29:12;;;;;;;2.75;2.65;;;6.10;99.90;;;;;;5087849;28;20220;-74
2024/03/24 06:31:38;;;;;;;2.70;2.60;;;6.10;99.90;;;;;;5080960;28;20751;-75
2024/03/24 06:34:06;;;;;;;2.88;2.78;;;6.10;99.90;;;;;;5082768;28;20270;-75
2024/03/24 06:36:32;;;;;;;2.75;2.55;;;6.00;99.90;;;;;;5088441;28;20215;-76
2024/03/24 06:38:59;;;;;;;3.10;2.90;;;6.00;99.90;;;;;;5082325;28;20222;-77
2024/03/24 06:41:28;;;;;;;3.08;2.90;;;6.00;99.90;;;;;;5086244;27;20286;-74
2024/03/24 06:43:55;;;;;;;2.70;2.60;;;6.00;99.90;;;;;;5082436;28;20212;-74
2024/03/24 06:46:22;;;;;;;2.78;2.63;;;6.00;99.90;;;;;;5086962;28;20228;-74
2024/03/24 06:48:48;;;;;;;2.90;2.78;;;6.10;99.90;;;;;;5086326;28;20244;-74
2024/03/24 06:51:15;;;;;;;2.50;2.40;;;6.30;99.90;;;;;;5083664;28;20300;-74
2024/03/24 06:53:41;;;;;;;2.83;2.60;;;6.40;99.90;;;;;;5079781;28;20278;-75
2024/03/24 06:56:08;;;;;;;2.90;2.70;;;6.50;99.90;;;;;;5087040;28;20221;-74
2024/03/24 06:58:35;;;;;;;3.10;2.95;;;6.60;99.90;;;;;;5084532;27;20397;-76
2024/03/24 07:01:02;;;;;;;3.00;2.80;;;6.60;99.90;;;;;;5086504;28;20225;-75
2024/03/24 07:03:28;;;;;;;2.70;2.60;;;6.60;99.90;;;;;;5084426;28;20217;-75
2024/03/24 07:05:55;;;;;;;2.90;2.80;;;6.70;99.90;;;;;;5082641;28;20217;-74
2024/03/24 07:08:21;;;;;;;2.92;2.63;;;6.80;99.90;;;;;;5087889;28;20289;-75
2024/03/24 07:10:52;;;;;;;3.00;2.80;;;6.90;99.90;;;;;;5092566;28;20217;-75
2024/03/24 07:13:18;;;;;;;3.15;2.95;;;6.90;99.90;;;;;;5086111;28;20236;-76
2024/03/24 07:15:47;;;;;;;2.90;2.70;;;6.90;99.90;;;;;;5082202;28;20308;-75
2024/03/24 07:18:12;;;;;;;2.90;2.70;;;6.90;99.90;;;;;;5083234;28;20282;-75
2024/03/24 07:20:39;;;;;;;2.70;2.55;;;7.00;99.90;;;;;;5078645;28;20209;-76
2024/03/24 07:23:06;;;;;;;2.58;2.47;;;7.10;99.90;;;;;;5082727;28;20270;-74
2024/03/24 07:25:33;;;;;;;2.83;2.58;;;7.10;99.90;;;;;;5083370;27;20221;-75
2024/03/24 07:27:59;;;;;;;2.63;2.42;;;7.10;99.90;;;;;;5078506;28;20254;-73
2024/03/24 07:30:26;;;;;;;2.65;2.45;;;7.20;99.90;;;;;;5079455;28;20261;-75
2024/03/24 07:32:53;;;;;;;2.45;2.33;;;7.30;99.90;;;;;;5079248;28;20793;-74
2024/03/24 07:35:20;;;;;;;2.83;2.72;;;7.40;99.90;;;;;;5084805;28;20260;-75
2024/03/24 07:37:46;;;;;;;2.90;2.70;;;7.50;99.90;;;;;;5080853;28;20875;-74
2024/03/24 07:40:13;;;;;;;3.92;3.00;;;7.50;99.90;;;;;;5076311;28;20220;-73
2024/03/24 07:42:41;;;;;;;2.88;2.65;;;7.50;99.90;;;;;;5082562;28;20233;-76
2024/03/24 07:45:09;;;;;;;2.97;2.78;;;7.50;99.90;;;;;;5075515;28;20274;-75
2024/03/24 07:47:35;;;;;;;2.88;2.67;;;7.50;99.90;;;;;;5084866;28;20584;-75
2024/03/24 07:50:04;;;;;;;3.28;3.08;;;7.60;99.90;;;;;;5084369;28;20312;-75
2024/03/24 07:52:30;;;;;;;3.17;2.88;;;7.80;99.90;;;;;;5089379;28;20308;-74
2024/03/24 07:54:57;;;;;;;3.22;3.03;;;8.70;99.90;;;;;;5083482;28;20336;-74
2024/03/24 07:57:23;;;;;;;3.00;2.80;;;9.50;99.90;;;;;;5079539;28;20222;-74
2024/03/24 07:59:50;;;;;;;2.50;2.40;;;9.90;99.90;;;;;;5077522;28;20240;-74
2024/03/24 08:02:16;;;;;;;2.90;2.70;;;10.30;99.90;;;;;;5085418;28;20254;-75
2024/03/24 08:04:43;;;;;;;3.63;2.85;;;10.80;99.90;;;;;;5083328;28;20257;-74
2024/03/24 08:07:10;;;;;;;2.35;2.25;;;11.00;99.90;;;;;;5083872;28;20245;-76
2024/03/24 08:09:37;;;;;;;2.30;2.20;;;11.20;99.90;;;;;;5083930;28;20217;-74
2024/03/24 08:12:03;;;;;;;2.47;2.38;;;11.20;99.90;;;;;;5081378;28;20217;-75
2024/03/24 08:14:30;;;;;;;2.53;2.20;;;11.00;99.90;;;;;;5086825;28;20217;-75
2024/03/24 08:16:57;;;;;;;2.47;2.20;;;10.70;99.90;;;;;;5082261;28;20238;-75
2024/03/24 08:19:24;;;;;;;2.08;1.98;;;10.40;99.90;;;;;;5082962;28;20304;-76
2024/03/24 08:21:50;;;;;;;2.00;1.90;;;10.00;99.90;;;;;;5079293;28;20917;-74
2024/03/24 08:24:19;;;;;;;2.20;2.10;;;9.90;99.90;;;;;;5083709;28;20228;-75
2024/03/24 08:26:45;;;;;;;2.20;2.00;;;9.80;99.90;;;;;;5083917;28;20256;-75
2024/03/24 08:29:12;;;;;;;2.20;2.10;;;9.40;99.90;;;;;;5080474;28;20306;-76
2024/03/24 08:31:38;;;;;;;2.20;2.10;;;9.20;99.90;;;;;;5079888;28;20237;-76
2024/03/24 08:34:05;;;;;;;2.20;2.10;;;9.10;99.90;;;;;;5080629;28;20228;-75
2024/03/24 08:36:31;;;;;;;1.85;1.75;;;9.30;99.90;;;;;;5083402;28;20245;-74
2024/03/24 08:38:58;;;;;;;2.10;2.00;;;9.40;99.90;;;;;;5082111;28;20375;-75
2024/03/24 08:41:25;;;;;;;2.30;2.20;;;9.50;99.90;;;;;;5084773;28;20282;-75
2024/03/24 08:43:54;;;;;;;2.28;2.10;;;9.80;99.90;;;;;;5082598;28;20198;-74
2024/03/24 08:46:20;;;;;;;2.70;2.50;;;9.90;99.90;;;;;;5077532;28;20572;-76
2024/03/24 08:48:48;;;;;;;2.45;2.35;;;10.00;99.90;;;;;;5079132;28;20308;-76
2024/03/24 08:51:14;;;;;;;2.70;2.50;;;10.10;99.90;;;;;;5085881;28;20232;-75
2024/03/24 08:53:41;;;;;;;2.38;2.28;;;10.20;99.90;;;;;;5079770;28;20189;-75
2024/03/24 08:56:07;;;;;;;2.30;2.20;;;10.30;99.90;;;;;;5080423;28;20848;-74
2024/03/24 08:58:35;;;;;;;2.28;2.17;;;10.60;99.90;;;;;;5080808;28;20270;-75
2024/03/24 09:01:03;;;;;;;2.40;2.28;;;10.50;99.90;;;;;;5078697;28;20225;-74
2024/03/24 09:03:30;;;;;;;2.13;2.03;;;10.40;99.90;;;;;;5082810;28;20228;-76
2024/03/24 09:05:56;;;;;;;2.08;1.98;;;10.60;99.90;;;;;;5080254;28;20241;-76
2024/03/24 09:08:23;;;;;;;2.50;2.30;;;10.90;99.90;;;;;;5083458;28;20310;-75
2024/03/24 09:10:48;;;;;;;2.00;1.90;;;11.00;99.90;;;;;;5080745;28;20903;-75
2024/03/24 09:13:15;;;;;;;2.05;1.95;;;11.60;99.90;;;;;;5079834;28;20233;-76
2024/03/24 09:15:43;;;;;;;2.60;2.40;;;12.10;99.90;;;;;;5079253;28;20250;-75
2024/03/24 09:18:10;;;;;;;2.33;2.13;;;12.80;99.90;;;;;;5079671;28;20317;-76
2024/03/24 09:20:36;;;;;;;2.60;2.40;;;13.10;99.90;;;;;;5082079;28;20228;-76
2024/03/24 09:23:03;;;;;;;2.38;1.95;;;13.20;99.90;;;;;;5079208;28;20221;-76
2024/03/24 09:25:31;;;;;;;3.95;2.08;;;13.30;99.90;;;;;;5076755;28;20839;-74
2024/03/24 09:27:58;;;;;;;2.00;1.90;;;13.80;99.90;;;;;;5073019;28;20300;-74
2024/03/24 09:30:24;;;;;;;4.05;1.70;;;14.30;99.90;;;;;;5073239;28;20249;-74
2024/03/24 09:32:52;;;;;;;2.15;1.70;;;14.60;99.90;;;;;;5076267;28;20222;-74
2024/03/24 09:35:18;;;;;;;2.10;1.90;;;14.60;99.90;;;;;;5078037;28;20237;-74
2024/03/24 09:37:45;;;;;;;1.98;1.77;;;14.30;99.90;;;;;;5075464;27;20220;-74
2024/03/24 09:40:12;;;;;;;1.80;1.70;;;14.00;99.90;;;;;;5075100;28;20236;-74
2024/03/24 09:42:39;;;;;;;1.80;1.70;;;13.90;99.90;;;;;;5078908;28;20231;-76
2024/03/24 09:45:09;;;;;;;1.80;1.70;;;13.90;99.90;;;;;;5073172;28;20237;-74
2024/03/24 09:47:38;;;;;;;1.80;1.70;;;13.80;99.90;;;;;;5072645;28;20235;-74
2024/03/24 09:50:06;;;;;;;1.67;1.58;;;13.70;99.90;;;;;;5077772;28;20282;-74
2024/03/24 09:52:35;;;;;;;1.70;1.60;;;13.80;99.90;;;;;;5076778;28;20213;-73
2024/03/24 09:55:01;;;;;;;1.65;1.55;;;14.30;99.90;;;;;;5078426;28;20329;-75
2024/03/24 09:57:35;;;;;;;1.70;1.60;;;14.40;99.90;;;;;;5077877;28;20236;-74
2024/03/24 10:00:03;;;;;;;1.80;1.55;;;14.90;99.90;;;;;;5078080;28;20301;-74
2024/03/24 10:02:30;;;;;;;2.05;1.80;;;15.20;99.90;;;;;;5075805;28;20255;-74
2024/03/24 10:04:58;;;;;;;1.65;1.55;;;15.40;99.90;;;;;;5074133;28;20944;-74
2024/03/24 10:07:26;;;;;;;1.67;1.58;;;15.10;99.90;;;;;;5077510;28;20217;-73
2024/03/24 10:09:52;;;;;;;1.35;1.35;;;15.10;99.90;;;;;;5073218;28;20268;-74
2024/03/24 10:12:19;;;;;;;6.53;2.13;;;15.20;99.90;;;;;;5074584;28;20304;-74
2024/03/24 10:14:45;;;;;;;1.90;1.50;;;15.40;99.90;;;;;;5077665;27;20297;-74
2024/03/24 10:17:16;;;;;;;1.70;1.60;;;15.60;99.90;;;;;;5078738;28;20229;-74
2024/03/24 10:19:45;;;;;;;1.60;1.50;;;15.70;99.90;;;;;;5074132;27;20275;-75
2024/03/24 10:22:12;;;;;;;1.52;1.48;;;15.90;99.90;;;;;;5075885;28;20208;-75
2024/03/24 10:24:43;;;;;;;1.58;1.48;;;15.90;99.90;;;;;;5078241;28;20213;-75
2024/03/24 10:27:12;;;;;;;1.33;1.33;;;16.10;99.90;;;;;;5078379;28;20258;-75
2024/03/24 10:29:38;;;;;;;2.00;1.90;;;16.20;99.90;;;;;;5078248;28;20221;-74
2024/03/24 10:32:06;;;;;;;1.35;1.25;;;16.10;99.90;;;;;;5076708;28;20225;-74
2024/03/24 10:34:32;;;;;;;1.83;1.73;;;16.00;99.90;;;;;;5070543;28;20222;-74
2024/03/24 10:36:59;;;;;;;1.30;1.30;;;15.70;99.90;;;;;;5074986;28;20217;-75
2024/03/24 10:39:25;;;;;;;1.50;1.40;;;15.50;99.90;;;;;;5075310;28;20233;-74
2024/03/24 10:41:55;;;;;;;1.30;1.23;;;15.50;99.90;;;;;;5074539;28;20221;-73
2024/03/24 10:44:25;;;;;;;1.70;1.60;;;16.00;99.90;;;;;;5075059;27;20213;-74
2024/03/24 10:46:54;;;;;;;1.63;1.50;;;16.40;99.90;;;;;;5078476;28;20205;-74
2024/03/24 10:49:25;;;;;;;1.20;1.20;;;16.50;99.90;;;;;;5073907;28;20218;-73
2024/03/24 10:51:56;;;;;;;1.92;1.73;;;16.40;99.90;;;;;;5078650;28;20311;-75
2024/03/24 10:54:22;;;;;;;2.65;1.88;;;15.90;99.90;;;;;;5074126;27;20289;-73
2024/03/24 10:56:49;;;;;;;1.80;1.70;;;15.20;99.90;;;;;;5070070;28;20214;-74
2024/03/24 10:59:20;;;;;;;1.27;1.27;;;14.80;99.90;;;;;;5075964;28;20811;-74
2024/03/24 11:01:47;;;;;;;1.50;1.40;;;14.80;99.90;;;;;;5080553;28;20225;-76
2024/03/24 11:04:13;;;;;;;1.85;1.45;;;15.20;99.90;;;;;;5079077;28;20278;-76
2024/03/24 11:06:42;;;;;;;1.45;1.35;;;15.40;99.90;;;;;;5084759;28;20212;-75
2024/03/24 11:09:12;;;;;;;2.08;1.33;;;15.00;99.90;;;;;;5080267;28;20249;-76
2024/03/24 11:11:40;;;;;;;1.42;1.35;;;14.80;99.90;;;;;;5082702;28;20289;-75
2024/03/24 11:14:07;;;;;;;1.50;1.40;;;15.10;99.90;;;;;;5080163;28;20330;-75
2024/03/24 11:16:36;;;;;;;2.03;1.30;;;15.40;99.90;;;;;;5076617;28;20222;-76
2024/03/24 11:19:06;;;;;;;1.20;1.20;;;15.60;99.90;;;;;;5081361;28;20249;-75
2024/03/24 11:21:37;;;;;;;1.40;1.30;;;16.00;99.90;;;;;;5083418;28;20220;-75
2024/03/24 11:24:08;;;;;;;1.33;1.27;;;15.90;99.90;;;;;;5080195;28;20278;-75
2024/03/24 11:26:35;;;;;;;1.33;1.23;;;16.00;99.90;;;;;;5082409;28;20217;-75
2024/03/24 11:29:01;;;;;;;1.60;1.20;;;16.50;99.90;;;;;;5080077;28;20249;-74
2024/03/24 11:31:37;;;;;;;2.10;1.40;;;16.30;99.90;;;;;;5082166;28;20781;-76
2024/03/24 11:34:05;;;;;;;1.20;1.20;;;15.80;99.90;;;;;;5080146;28;20233;-74
2024/03/24 11:36:33;;;;;;;1.10;1.10;;;15.70;99.90;;;;;;5079671;27;20730;-74
2024/03/24 11:39:00;;;;;;;1.15;1.15;;;15.60;99.90;;;;;;5082216;28;20225;-75
2024/03/24 11:41:27;;;;;;;1.52;1.42;;;15.40;99.90;;;;;;5085346;28;20304;-76
2024/03/24 11:43:56;;;;;;;1.15;1.15;;;15.80;99.90;;;;;;5081682;28;20212;-74
2024/03/24 11:46:24;;;;;;;1.30;1.20;;;15.70;99.90;;;;;;5078688;28;20241;-76
2024/03/24 11:48:55;;;;;;;1.30;1.30;;;15.70;99.90;;;;;;5081762;28;20261;-77
2024/03/24 11:51:23;;;;;;;1.40;1.23;;;15.70;99.90;;;;;;5082694;28;20729;-77
2024/03/24 11:53:51;;;;;;;1.25;1.23;;;15.50;99.90;;;;;;5080394;28;20363;-76
2024/03/24 11:56:20;;;;;;;1.65;1.50;;;15.30;99.90;;;;;;5077580;28;20193;-80
2024/03/24 11:58:48;;;;;;;1.40;1.30;;;15.20;99.90;;;;;;5084622;28;20221;-77
2024/03/24 12:01:16;;;;;;;1.55;1.05;;;15.20;99.90;;;;;;5081996;28;20227;-77
2024/03/24 12:03:42;;;;;;;1.45;1.35;;;14.80;99.90;;;;;;5078405;28;20647;-76
2024/03/24 12:06:12;;;;;;;1.30;1.20;;;14.60;99.90;;;;;;5080242;28;20253;-76
2024/03/24 12:08:39;;;;;;;1.60;1.40;;;14.80;99.90;;;;;;5082108;28;20198;-76
2024/03/24 12:11:06;;;;;;;1.23;1.23;;;15.30;99.90;;;;;;5075171;28;20298;-75
2024/03/24 12:13:32;;;;;;;1.38;1.38;;;15.70;99.90;;;;;;5083035;28;20245;-76
2024/03/24 12:15:59;;;;;;;1.65;1.55;;;15.80;99.90;;;;;;5077993;28;20831;-76
2024/03/24 12:18:25;;;;;;;1.30;1.20;;;15.70;99.90;;;;;;5077602;28;20301;-76
2024/03/24 12:20:53;;;;;;;1.17;1.17;;;15.90;99.90;;;;;;5078632;28;20266;-76
2024/03/24 12:23:25;;;;;;;1.27;1.20;;;16.00;99.90;;;;;;5078386;28;20217;-76
2024/03/24 12:25:53;;;;;;;1.40;1.30;;;16.10;99.90;;;;;;5078382;28;20252;-76
2024/03/24 12:28:20;;;;;;;1.20;1.10;;;16.60;99.90;;;;;;5079895;28;20798;-77
2024/03/24 12:30:51;;;;;;;1.25;1.20;;;17.00;99.90;;;;;;5081614;28;20229;-76
2024/03/24 12:33:20;;;;;;;1.30;1.20;;;17.50;99.90;;;;;;5080196;28;20322;-77
2024/03/24 12:35:49;;;;;;;1.10;1.10;;;18.00;99.90;;;;;;5080690;28;20229;-76
2024/03/24 12:38:16;;;;;;;1.70;1.42;;;18.20;99.90;;;;;;5084062;28;20217;-76
2024/03/24 12:40:51;;;;;;;1.58;1.48;;;18.10;99.90;;;;;;5077823;28;20257;-75
2024/03/24 12:43:17;;;;;;;1.70;1.30;;;17.80;99.90;;;;;;5080105;28;20370;-75
2024/03/24 12:45:51;;;;;;;1.48;1.38;;;17.10;99.90;;;;;;5077877;28;20245;-75
2024/03/24 12:48:17;;;;;;;1.60;1.50;;;16.90;99.90;;;;;;5083514;28;20244;-77
2024/03/24 12:50:45;;;;;;;1.98;1.80;;;16.40;99.90;;;;;;5083030;28;20213;-76
2024/03/24 12:53:24;;;;;;;2.05;1.50;;;15.60;99.90;;;;;;5085767;28;20245;-77